createdAt,value
2019-04-03T00:01:36.876Z,72.79
2019-04-03T00:04:07.400Z,72.98
2019-04-03T00:06:37.915Z,73.43
2019-04-03T00:09:09.389Z,73.33
2019-04-03T00:11:40.383Z,73.42
2019-04-03T00:14:12.884Z,73.74
2019-04-03T00:16:45.134Z,74.02
2019-04-03T00:19:15.891Z,73.69
2019-04-03T00:21:50.179Z,73.83
2019-04-03T00:24:22.146Z,74.11
2019-04-03T00:26:52.938Z,74.00
2019-04-03T00:29:23.454Z,74.09
2019-04-03T00:31:54.048Z,73.77
2019-04-03T00:34:24.576Z,74.37
2019-04-03T00:36:55.055Z,74.63
2019-04-03T00:39:25.637Z,74.64
2019-04-03T00:41:56.116Z,74.45
2019-04-03T00:44:26.694Z,74.72
2019-04-03T00:46:57.199Z,74.18
2019-04-03T00:49:27.770Z,74.32
2019-04-03T00:51:58.283Z,74.79
2019-04-03T00:54:30.902Z,75.15
2019-04-03T00:57:01.322Z,75.00
2019-04-03T00:59:31.858Z,75.53
2019-04-03T01:02:02.299Z,75.83
2019-04-03T01:04:34.030Z,75.77
2019-04-03T01:07:04.580Z,75.82
2019-04-03T01:09:35.125Z,76.32
2019-04-03T01:12:05.630Z,76.69
2019-04-03T01:14:36.193Z,77.24
2019-04-03T01:17:06.807Z,77.23
2019-04-03T01:19:37.241Z,77.38
2019-04-03T01:22:08.092Z,77.61
2019-04-03T01:24:39.046Z,78.36
2019-04-03T01:27:11.105Z,78.52
2019-04-03T01:29:42.917Z,78.61
2019-04-03T01:32:15.129Z,78.83
2019-04-03T01:34:47.685Z,79.39
2019-04-03T01:37:19.174Z,79.47
2019-04-03T01:39:50.833Z,79.45
2019-04-03T01:42:22.498Z,79.63
2019-04-03T01:44:55.130Z,79.88
2019-04-03T01:47:27.515Z,80.54
2019-04-03T01:49:58.523Z,80.74
2019-04-03T01:52:31.045Z,81.01
2019-04-03T01:55:20.994Z,81.55
2019-04-03T01:57:51.749Z,81.77
2019-04-03T02:00:22.205Z,81.40
2019-04-03T02:02:52.722Z,80.96
2019-04-03T02:05:23.204Z,80.94
2019-04-03T02:07:53.801Z,81.01
2019-04-03T02:10:25.269Z,80.83
2019-04-03T02:12:55.733Z,80.72
2019-04-03T02:15:26.287Z,80.83
2019-04-03T02:17:56.809Z,80.83
2019-04-03T02:20:27.302Z,80.79
2019-04-03T02:22:59.613Z,81.18
2019-04-03T02:25:32.127Z,81.10
2019-04-03T02:28:03.838Z,81.10
2019-04-03T02:30:34.455Z,81.52
2019-04-03T02:33:04.947Z,81.52
2019-04-03T02:35:38.946Z,81.66
2019-04-03T02:38:08.029Z,82.17
2019-04-03T02:40:38.615Z,82.21
2019-04-03T02:43:09.260Z,82.79
2019-04-03T02:45:39.786Z,82.99
2019-04-03T02:48:10.255Z,83.35
2019-04-03T02:50:41.108Z,83.22
2019-04-03T02:53:11.691Z,83.72
2019-04-03T02:55:42.236Z,83.42
2019-04-03T02:58:12.737Z,83.88
2019-04-03T03:00:43.539Z,83.71
2019-04-03T03:03:17.240Z,83.72
2019-04-03T03:05:46.308Z,84.31
2019-04-03T03:08:17.590Z,84.53
2019-04-03T03:10:51.724Z,84.29
2019-04-03T03:13:22.756Z,84.61
2019-04-03T03:15:53.760Z,84.43
2019-04-03T03:18:27.192Z,84.30
2019-04-03T03:20:58.936Z,84.08
2019-04-03T03:23:29.692Z,84.36
2019-04-03T03:26:00.282Z,84.61
2019-04-03T03:28:31.125Z,85.19
2019-04-03T03:31:04.931Z,85.50
2019-04-03T03:33:37.901Z,85.93
2019-04-03T03:36:08.381Z,86.14
2019-04-03T03:38:40.822Z,86.23
2019-04-03T03:41:11.597Z,86.18
2019-04-03T03:43:42.474Z,86.23
2019-04-03T03:46:13.410Z,86.12
2019-04-03T03:48:45.658Z,86.04
2019-04-03T03:51:17.567Z,85.81
2019-04-03T03:53:49.852Z,85.85
2019-04-03T03:56:21.585Z,85.75
2019-04-03T03:58:52.387Z,86.22
2019-04-03T04:01:23.202Z,86.34
2019-04-03T04:03:53.865Z,86.31
2019-04-03T04:06:27.914Z,86.37
2019-04-03T04:08:56.940Z,86.72
2019-04-03T04:11:30.837Z,87.09
2019-04-03T04:14:00.489Z,87.13
2019-04-03T04:16:31.101Z,87.49
2019-04-03T04:19:01.597Z,87.70
2019-04-03T04:21:32.566Z,88.12
2019-04-03T04:24:03.115Z,88.18
2019-04-03T04:26:33.883Z,88.20
2019-04-03T04:29:04.545Z,88.12
2019-04-03T04:31:35.067Z,88.00
2019-04-03T04:34:05.612Z,87.90
2019-04-03T04:36:36.063Z,87.60
2019-04-03T04:39:08.988Z,87.65
2019-04-03T04:41:39.460Z,87.28
2019-04-03T04:44:10.438Z,86.56
2019-04-03T04:46:43.607Z,86.84
2019-04-03T04:49:13.377Z,87.34
2019-04-03T04:51:43.870Z,87.41
2019-04-03T04:54:14.374Z,87.63
2019-04-03T04:56:44.943Z,87.61
2019-04-03T04:59:15.397Z,87.55
2019-04-03T05:01:47.037Z,87.86
2019-04-03T05:04:18.136Z,87.92
2019-04-03T05:06:48.614Z,87.78
2019-04-03T05:09:19.081Z,87.85
2019-04-03T05:11:49.595Z,87.82
2019-04-03T05:14:20.052Z,88.03
2019-04-03T05:16:50.552Z,88.31
2019-04-03T05:19:21.250Z,88.16
2019-04-03T05:21:53.073Z,88.31
2019-04-03T05:24:23.876Z,88.23
2019-04-03T05:26:54.403Z,88.54
2019-04-03T05:29:25.078Z,88.23
2019-04-03T05:31:55.669Z,88.33
2019-04-03T05:34:26.165Z,88.56
2019-04-03T05:36:56.575Z,88.93
2019-04-03T05:39:27.069Z,89.00
2019-04-03T05:41:59.312Z,88.94
2019-04-03T05:44:32.839Z,89.01
2019-04-03T05:47:02.279Z,89.09
2019-04-03T05:49:32.894Z,89.16
2019-04-03T05:52:04.139Z,89.12
2019-04-03T05:54:35.154Z,89.08
2019-04-03T05:57:24.750Z,88.89
2019-04-03T06:00:00.805Z,88.90
2019-04-03T06:02:27.423Z,88.75
2019-04-03T06:04:57.941Z,88.63
2019-04-03T06:07:28.472Z,88.70
2019-04-03T06:09:59.295Z,88.79
2019-04-03T06:12:30.032Z,88.73
2019-04-03T06:15:00.527Z,88.50
2019-04-03T06:17:31.042Z,88.25
2019-04-03T06:20:01.397Z,88.11
2019-04-03T06:22:31.877Z,87.92
2019-04-03T06:25:02.400Z,87.87
2019-04-03T06:27:33.093Z,87.68
2019-04-03T06:30:03.519Z,87.42
2019-04-03T06:32:34.001Z,87.52
2019-04-03T06:35:04.664Z,87.72
2019-04-03T06:37:35.178Z,87.54
2019-04-03T06:40:06.670Z,87.26
2019-04-03T06:42:37.158Z,86.67
2019-04-03T06:45:08.218Z,86.64
2019-04-03T06:47:38.676Z,86.69
2019-04-03T06:50:12.212Z,86.08
2019-04-03T06:52:41.447Z,86.22
2019-04-03T06:55:11.820Z,85.98
2019-04-03T06:57:42.368Z,85.69
2019-04-03T07:00:13.707Z,85.49
2019-04-03T07:02:44.178Z,85.34
2019-04-03T07:05:14.646Z,85.20
2019-04-03T07:07:45.132Z,84.56
2019-04-03T07:10:25.080Z,83.84
2019-04-03T07:12:48.572Z,83.51
2019-04-03T07:15:19.117Z,83.55
2019-04-03T07:17:49.516Z,83.17
2019-04-03T07:20:20.845Z,82.66
2019-04-03T07:22:51.628Z,82.26
2019-04-03T07:25:22.128Z,81.84
2019-04-03T07:27:52.908Z,81.71
2019-04-03T07:30:23.440Z,81.53
2019-04-03T07:32:57.134Z,82.52
2019-04-03T07:35:26.083Z,81.62
2019-04-03T07:37:56.882Z,81.52
2019-04-03T07:40:27.578Z,81.80
2019-04-03T07:42:58.601Z,81.28
2019-04-03T07:45:29.165Z,81.93
2019-04-03T07:47:59.624Z,82.32
2019-04-03T07:50:30.123Z,81.07
2019-04-03T07:53:00.644Z,81.14
2019-04-03T07:55:31.259Z,81.31
2019-04-03T07:58:01.705Z,81.30
2019-04-03T08:00:32.228Z,80.71
2019-04-03T08:03:02.774Z,80.42
2019-04-03T08:05:33.267Z,79.97
2019-04-03T08:08:03.808Z,79.54
2019-04-03T08:10:37.514Z,78.73
2019-04-03T08:13:07.580Z,78.84
2019-04-03T08:15:38.240Z,78.85
2019-04-03T08:18:08.708Z,79.21
2019-04-03T08:20:39.383Z,79.49
2019-04-03T08:23:09.883Z,78.33
2019-04-03T08:25:42.691Z,78.15
2019-04-03T08:28:12.517Z,78.86
2019-04-03T08:30:43.493Z,78.61
2019-04-03T08:33:17.921Z,78.44
2019-04-03T08:35:46.509Z,78.08
2019-04-03T08:38:17.129Z,78.60
2019-04-03T08:40:47.651Z,76.62
2019-04-03T08:43:18.160Z,77.41
2019-04-03T08:45:48.667Z,76.98
2019-04-03T08:48:19.149Z,76.55
2019-04-03T08:50:49.829Z,75.42
2019-04-03T08:53:20.343Z,75.25
2019-04-03T08:55:50.911Z,75.88
2019-04-03T08:58:22.105Z,75.75
2019-04-03T09:00:53.764Z,75.86
2019-04-03T09:03:24.571Z,75.02
2019-04-03T09:05:55.871Z,75.11
2019-04-03T09:08:27.126Z,75.83
2019-04-03T09:10:57.814Z,74.98
2019-04-03T09:13:28.290Z,73.02
2019-04-03T09:16:00.247Z,72.75
2019-04-03T09:18:31.011Z,74.83
2019-04-03T09:21:01.591Z,75.03
2019-04-03T09:23:32.152Z,75.12
2019-04-03T09:26:03.796Z,74.57
2019-04-03T09:28:34.370Z,73.60
2019-04-03T09:31:04.920Z,74.00
2019-04-03T09:33:35.547Z,75.70
2019-04-03T09:36:06.411Z,76.00
2019-04-03T09:38:37.515Z,76.11
2019-04-03T09:41:08.130Z,76.75
2019-04-03T09:43:40.011Z,75.46
2019-04-03T09:46:10.645Z,77.30
2019-04-03T09:48:41.297Z,78.50
2019-04-03T09:51:11.878Z,78.23
2019-04-03T09:53:42.457Z,79.74
2019-04-03T09:56:13.163Z,80.21
2019-04-03T09:58:43.695Z,81.53
2019-04-03T10:01:17.770Z,82.39
2019-04-03T10:03:46.480Z,82.32
2019-04-03T10:06:17.609Z,83.32
2019-04-03T10:08:48.215Z,84.22
2019-04-03T10:11:20.149Z,84.34
2019-04-03T10:13:51.347Z,85.56
2019-04-03T10:16:21.965Z,86.70
2019-04-03T10:18:52.688Z,87.14
2019-04-03T10:21:23.643Z,88.04
2019-04-03T10:23:54.557Z,88.21
2019-04-03T10:26:25.012Z,88.07
2019-04-03T10:28:55.904Z,87.97
2019-04-03T10:31:26.600Z,88.64
2019-04-03T10:33:57.303Z,88.16
2019-04-03T10:36:28.564Z,88.88
2019-04-03T10:38:59.286Z,89.37
2019-04-03T10:41:29.948Z,89.58
2019-04-03T10:44:00.474Z,89.48
2019-04-03T10:46:31.061Z,89.60
2019-04-03T10:49:02.184Z,90.02
2019-04-03T10:51:32.905Z,90.21
2019-04-03T10:54:03.464Z,90.33
2019-04-03T10:56:34.053Z,90.49
2019-04-03T10:59:11.537Z,91.08
2019-04-03T11:01:37.105Z,91.08
2019-04-03T11:04:07.703Z,91.19
2019-04-03T11:06:38.270Z,91.30
2019-04-03T11:09:10.482Z,91.58
2019-04-03T11:11:43.045Z,91.47
2019-04-03T11:14:14.307Z,91.32
2019-04-03T11:16:46.537Z,91.48
2019-04-03T11:19:19.554Z,91.88
2019-04-03T11:21:50.029Z,91.92
2019-04-03T11:24:21.239Z,91.32
2019-04-03T11:26:52.563Z,91.37
2019-04-03T11:29:23.945Z,91.24
2019-04-03T11:31:54.811Z,91.09
2019-04-03T11:34:25.815Z,91.06
2019-04-03T11:37:00.003Z,90.95
2019-04-03T11:39:29.175Z,91.22
2019-04-03T11:42:00.061Z,91.30
2019-04-03T11:44:30.769Z,91.21
2019-04-03T11:47:01.376Z,91.18
2019-04-03T11:49:32.166Z,91.27
2019-04-03T11:52:02.906Z,90.97
2019-04-03T11:54:33.429Z,90.62
2019-04-03T11:57:04.320Z,90.75
2019-04-03T11:59:34.883Z,90.72
2019-04-03T12:02:07.529Z,90.60
2019-04-03T12:04:38.162Z,90.74
2019-04-03T12:07:12.044Z,91.01
2019-04-03T12:09:43.384Z,90.53
2019-04-03T12:12:14.463Z,89.97
2019-04-03T12:14:45.087Z,90.82
2019-04-03T12:17:15.729Z,91.37
2019-04-03T12:19:46.658Z,91.46
2019-04-03T12:22:17.436Z,91.48
2019-04-03T12:24:48.558Z,91.17
2019-04-03T12:27:19.046Z,90.38
2019-04-03T12:29:49.903Z,90.49
2019-04-03T12:32:37.877Z,90.90
2019-04-03T12:35:04.631Z,90.78
2019-04-03T12:37:35.155Z,90.66
2019-04-03T12:40:07.263Z,90.82
2019-04-03T12:42:38.021Z,90.62
2019-04-03T12:45:10.896Z,91.01
2019-04-03T12:47:44.486Z,90.43
2019-04-03T12:50:15.326Z,90.75
2019-04-03T12:52:46.027Z,90.61
2019-04-03T12:55:16.752Z,90.91
2019-04-03T12:57:47.399Z,90.92
2019-04-03T13:00:19.360Z,90.53
2019-04-03T13:02:50.098Z,89.96
2019-04-03T13:05:22.269Z,90.26
2019-04-03T13:07:52.769Z,89.13
2019-04-03T13:10:23.723Z,88.50
2019-04-03T13:12:56.739Z,87.86
2019-04-03T13:15:28.455Z,87.74
2019-04-03T13:18:00.028Z,88.23
2019-04-03T13:20:30.659Z,87.50
2019-04-03T13:23:01.178Z,86.83
2019-04-03T13:25:31.795Z,86.53
2019-04-03T13:28:04.011Z,84.79
2019-04-03T13:30:34.781Z,84.23
2019-04-03T13:33:07.212Z,81.27
2019-04-03T13:35:37.785Z,78.64
2019-04-03T13:38:08.487Z,73.44
2019-04-03T13:40:39.263Z,71.29
2019-04-03T13:43:09.769Z,68.30
2019-04-03T13:45:40.365Z,68.13
2019-04-03T13:48:13.459Z,64.44
2019-04-03T13:50:45.484Z,70.02
2019-04-03T13:53:15.975Z,70.23
2019-04-03T13:55:46.707Z,74.20
2019-04-03T13:58:17.237Z,76.35
2019-04-03T14:00:59.029Z,77.60
2019-04-03T14:03:20.138Z,78.98
2019-04-03T14:05:50.647Z,79.93
2019-04-03T14:08:21.353Z,81.91
2019-04-03T14:10:51.962Z,82.41
2019-04-03T14:13:22.844Z,81.45
2019-04-03T14:15:56.037Z,81.02
2019-04-03T14:18:26.048Z,81.62
2019-04-03T14:20:57.119Z,81.95
2019-04-03T14:23:27.781Z,83.34
2019-04-03T14:26:05.230Z,83.50
2019-04-03T14:28:33.364Z,83.98
2019-04-03T14:31:05.026Z,83.75
2019-04-03T14:33:43.515Z,83.27
2019-04-03T14:36:07.623Z,84.44
2019-04-03T14:38:38.106Z,84.80
2019-04-03T14:41:08.793Z,83.86
2019-04-03T14:43:39.456Z,83.91
2019-04-03T14:46:09.981Z,84.42
2019-04-03T14:48:40.515Z,84.97
2019-04-03T14:51:12.218Z,85.62
2019-04-03T14:53:42.862Z,85.73
2019-04-03T14:56:13.782Z,86.12
2019-04-03T14:58:44.383Z,85.53
2019-04-03T15:01:14.922Z,85.18
2019-04-03T15:03:45.678Z,85.50
2019-04-03T15:06:19.038Z,85.54
2019-04-03T15:08:49.624Z,85.02
2019-04-03T15:11:21.819Z,85.32
2019-04-03T15:13:52.940Z,85.51
2019-04-03T15:16:23.502Z,86.11
2019-04-03T15:18:53.931Z,86.65
2019-04-03T15:21:25.226Z,86.40
2019-04-03T15:23:55.880Z,86.41
2019-04-03T15:26:26.293Z,86.20
2019-04-03T15:28:56.937Z,85.62
2019-04-03T15:31:27.608Z,85.25
2019-04-03T15:33:58.261Z,85.44
2019-04-03T15:36:28.960Z,85.19
2019-04-03T15:38:59.915Z,84.24
2019-04-03T15:41:33.323Z,82.93
2019-04-03T15:44:02.892Z,83.00
2019-04-03T15:46:34.295Z,81.20
2019-04-03T15:49:05.316Z,79.95
2019-04-03T15:51:38.178Z,74.89
2019-04-03T15:54:08.162Z,69.03
2019-04-03T15:56:38.627Z,66.48
2019-04-03T15:59:10.901Z,66.31
2019-04-03T16:01:41.444Z,64.77
2019-04-03T16:04:11.923Z,61.25
2019-04-03T16:06:42.815Z,64.24
2019-04-03T16:09:13.473Z,61.21
2019-04-03T16:11:43.986Z,59.18
2019-04-03T16:14:14.680Z,58.87
2019-04-03T16:16:45.178Z,57.09
2019-04-03T16:19:15.670Z,56.35
2019-04-03T16:21:46.268Z,59.42
2019-04-03T16:24:16.859Z,60.50
2019-04-03T16:26:47.390Z,60.39
2019-04-03T16:29:17.961Z,58.45
2019-04-03T16:31:48.458Z,58.07
2019-04-03T16:34:21.958Z,59.53
2019-04-03T16:36:52.975Z,61.66
2019-04-03T16:39:23.626Z,62.38
2019-04-03T16:41:54.109Z,62.45
2019-04-03T16:44:26.267Z,63.81
2019-04-03T16:46:57.027Z,66.78
2019-04-03T16:49:28.663Z,68.72
2019-04-03T16:51:59.475Z,69.30
2019-04-03T16:54:31.902Z,70.87
2019-04-03T16:57:03.608Z,71.33
2019-04-03T16:59:36.110Z,72.06
2019-04-03T17:02:06.737Z,73.05
2019-04-03T17:04:37.666Z,74.27
2019-04-03T17:07:09.723Z,74.72
2019-04-03T17:09:40.950Z,76.69
2019-04-03T17:12:11.481Z,77.39
2019-04-03T17:14:42.005Z,77.25
2019-04-03T17:17:14.367Z,77.23
2019-04-03T17:20:03.847Z,77.32
2019-04-03T17:22:34.409Z,77.84
2019-04-03T17:25:05.139Z,78.35
2019-04-03T17:27:36.044Z,78.44
2019-04-03T17:30:08.078Z,78.31
2019-04-03T17:32:38.776Z,77.88
2019-04-03T17:35:09.943Z,79.75
2019-04-03T17:37:40.505Z,80.04
2019-04-03T17:40:12.615Z,80.81
2019-04-03T17:42:43.207Z,81.26
2019-04-03T17:45:16.214Z,81.85
2019-04-03T17:47:49.374Z,82.69
2019-04-03T17:50:19.002Z,82.70
2019-04-03T17:52:49.510Z,83.37
2019-04-03T17:55:19.959Z,83.37
2019-04-03T17:57:50.489Z,84.17
2019-04-03T18:00:23.110Z,84.46
2019-04-03T18:02:53.596Z,84.81
2019-04-03T18:05:25.621Z,85.18
2019-04-03T18:07:58.645Z,85.65
2019-04-03T18:10:28.646Z,85.90
2019-04-03T18:12:59.137Z,86.43
2019-04-03T18:15:29.609Z,86.50
2019-04-03T18:18:00.998Z,86.68
2019-04-03T18:20:32.388Z,87.15
2019-04-03T18:23:02.924Z,87.19
2019-04-03T18:25:33.483Z,87.45
2019-04-03T18:28:05.436Z,88.16
2019-04-03T18:30:36.078Z,88.23
2019-04-03T18:33:06.645Z,88.06
2019-04-03T18:35:37.142Z,88.20
2019-04-03T18:38:08.554Z,88.15
2019-04-03T18:40:39.190Z,88.50
2019-04-03T18:43:09.750Z,88.20
2019-04-03T18:45:40.217Z,88.67
2019-04-03T18:48:10.885Z,88.71
2019-04-03T18:50:41.393Z,88.71
2019-04-03T18:53:11.925Z,89.07
2019-04-03T18:55:44.631Z,89.20
2019-04-03T18:58:14.636Z,89.64
2019-04-03T19:00:45.167Z,89.87
2019-04-03T19:03:15.689Z,89.86
2019-04-03T19:05:46.290Z,90.04
2019-04-03T19:08:18.110Z,90.16
2019-04-03T19:11:01.316Z,90.56
2019-04-03T19:13:21.302Z,90.75
2019-04-03T19:15:51.808Z,91.05
2019-04-03T19:18:22.354Z,91.38
2019-04-03T19:20:52.885Z,91.57
2019-04-03T19:23:23.452Z,91.55
2019-04-03T19:25:53.974Z,91.50
2019-04-03T19:28:24.530Z,91.62
2019-04-03T19:31:04.173Z,91.83
2019-04-03T19:33:34.592Z,91.69
2019-04-03T19:36:05.179Z,91.54
2019-04-03T19:38:36.317Z,91.37
2019-04-03T19:41:06.851Z,91.55
2019-04-03T19:43:37.383Z,91.77
2019-04-03T19:46:08.007Z,91.94
2019-04-03T19:48:38.522Z,92.04
2019-04-03T19:51:09.012Z,92.07
2019-04-03T19:53:39.507Z,92.18
2019-04-03T19:56:10.002Z,92.00
2019-04-03T19:58:40.474Z,92.10
2019-04-03T20:01:10.990Z,91.99
2019-04-03T20:03:44.095Z,92.12
2019-04-03T20:06:13.820Z,92.29
2019-04-03T20:08:44.281Z,92.37
2019-04-03T20:11:14.732Z,92.42
2019-04-03T20:13:45.456Z,92.45
2019-04-03T20:16:15.930Z,92.38
2019-04-03T20:18:46.409Z,92.43
2019-04-03T20:21:16.853Z,92.70
2019-04-03T20:23:48.637Z,92.66
2019-04-03T20:26:19.105Z,92.64
2019-04-03T20:28:49.516Z,92.85
2019-04-03T20:31:20.057Z,92.84
2019-04-03T20:33:50.589Z,92.87
2019-04-03T20:36:21.039Z,92.87
2019-04-03T20:38:51.558Z,92.62
2019-04-03T20:41:22.068Z,92.69
2019-04-03T20:43:52.615Z,92.86
2019-04-03T20:46:23.957Z,93.00
2019-04-03T20:48:54.896Z,92.71
2019-04-03T20:51:25.393Z,92.50
2019-04-03T20:53:55.942Z,91.97
2019-04-03T20:56:27.117Z,92.36
2019-04-03T20:58:58.644Z,92.27
2019-04-03T21:01:29.141Z,92.21
2019-04-03T21:03:59.699Z,92.06
2019-04-03T21:06:30.213Z,92.33
2019-04-03T21:09:00.742Z,92.51
2019-04-03T21:11:32.636Z,92.51
2019-04-03T21:14:05.574Z,92.34
2019-04-03T21:16:35.824Z,92.26
2019-04-03T21:19:06.348Z,92.09
2019-04-03T21:21:36.841Z,91.93
2019-04-03T21:24:07.399Z,91.97
2019-04-03T21:26:57.362Z,91.71
2019-04-03T21:29:27.836Z,92.02
2019-04-03T21:31:58.449Z,92.32
2019-04-03T21:34:28.926Z,92.28
2019-04-03T21:36:59.513Z,92.25
2019-04-03T21:39:30.080Z,92.27
2019-04-03T21:42:00.645Z,92.07
2019-04-03T21:44:31.913Z,92.04
2019-04-03T21:47:03.031Z,92.01
2019-04-03T21:49:33.542Z,91.96
2019-04-03T21:52:04.203Z,91.70
2019-04-03T21:54:34.686Z,91.25
2019-04-03T21:57:06.764Z,91.13
2019-04-03T21:59:37.527Z,90.83
2019-04-03T22:02:08.003Z,90.62
2019-04-03T22:04:38.577Z,90.88
2019-04-03T22:07:09.126Z,90.83
2019-04-03T22:09:39.634Z,90.50
2019-04-03T22:12:10.464Z,90.32
2019-04-03T22:14:42.744Z,90.49
2019-04-03T22:17:13.189Z,90.65
2019-04-03T22:19:43.679Z,90.38
2019-04-03T22:22:14.267Z,90.23
2019-04-03T22:24:44.745Z,90.11
2019-04-03T22:27:15.273Z,89.60
2019-04-03T22:29:45.788Z,88.92
2019-04-03T22:32:16.312Z,88.54
2019-04-03T22:34:46.844Z,88.51
2019-04-03T22:37:17.425Z,88.03
2019-04-03T22:39:47.934Z,87.50
2019-04-03T22:42:18.454Z,87.54
2019-04-03T22:44:49.022Z,87.03
2019-04-03T22:47:19.519Z,86.52
2019-04-03T22:49:50.031Z,87.03
2019-04-03T22:52:20.654Z,87.45
2019-04-03T22:54:51.181Z,87.26
2019-04-03T22:57:21.685Z,87.11
2019-04-03T22:59:54.471Z,86.76
2019-04-03T23:02:24.348Z,86.98
2019-04-03T23:04:54.893Z,87.04
2019-04-03T23:07:25.383Z,87.63
2019-04-03T23:09:56.779Z,87.94
2019-04-03T23:12:27.675Z,87.82
2019-04-03T23:14:58.219Z,87.09
2019-04-03T23:17:28.724Z,87.30
2019-04-03T23:19:59.287Z,87.54
2019-04-03T23:22:29.847Z,88.00
2019-04-03T23:25:00.418Z,87.98
2019-04-03T23:27:32.787Z,87.98
2019-04-03T23:30:03.206Z,86.98
2019-04-03T23:32:33.751Z,86.76
2019-04-03T23:35:04.328Z,86.65
2019-04-03T23:37:34.777Z,86.91
2019-04-03T23:40:05.818Z,86.46
2019-04-03T23:42:37.836Z,86.04
2019-04-03T23:45:08.802Z,86.01
2019-04-03T23:47:39.291Z,86.18
2019-04-03T23:50:10.283Z,85.77
2019-04-03T23:52:40.802Z,87.45
2019-04-03T23:55:11.798Z,85.03
2019-04-03T23:57:42.309Z,85.16
